createdAt,value
2022-12-24T00:01:38.876Z,98368.19
2022-12-24T00:04:07.680Z,98387.69
2022-12-24T00:06:36.105Z,98377.41
2022-12-24T00:09:05.669Z,98377.41
2022-12-24T00:11:34.301Z,98376.47
2022-12-24T00:14:03.078Z,98386.72
2022-12-24T00:16:31.754Z,98371.97
2022-12-24T00:19:01.545Z,98380.50
2022-12-24T00:21:29.987Z,98377.75
2022-12-24T00:23:58.393Z,98372.00
2022-12-24T00:26:26.851Z,98380.31
2022-12-24T00:28:55.271Z,98385.69
2022-12-24T00:31:23.837Z,98381.13
2022-12-24T00:33:52.655Z,98381.56
2022-12-24T00:36:22.890Z,98392.47
2022-12-24T00:38:51.398Z,98401.81
2022-12-24T00:41:26.036Z,98409.16
2022-12-24T00:43:56.636Z,98425.91
2022-12-24T00:46:26.388Z,98414.28
2022-12-24T00:48:55.436Z,98408.69
2022-12-24T00:51:26.177Z,98408.06
2022-12-24T00:53:55.097Z,98417.88
2022-12-24T00:56:23.988Z,98422.50
2022-12-24T00:58:52.739Z,98425.94
2022-12-24T01:01:22.017Z,98429.13
2022-12-24T01:03:51.359Z,98432.31
2022-12-24T01:06:22.955Z,98426.69
2022-12-24T01:08:52.877Z,98426.28
2022-12-24T01:11:21.468Z,98421.19
2022-12-24T01:13:49.864Z,98431.81
2022-12-24T01:16:21.380Z,98412.41
2022-12-24T01:18:49.941Z,98403.53
2022-12-24T01:21:18.640Z,98433.03
2022-12-24T01:23:48.465Z,98426.69
2022-12-24T01:26:16.928Z,98434.97
2022-12-24T01:28:45.414Z,98432.53
2022-12-24T01:31:15.842Z,98430.88
2022-12-24T01:33:45.151Z,98417.09
2022-12-24T01:36:14.286Z,98419.03
2022-12-24T01:38:42.986Z,98420.34
2022-12-24T01:41:36.374Z,98417.31
2022-12-24T01:44:26.173Z,98405.97
2022-12-24T01:47:05.034Z,98381.84
2022-12-24T01:49:33.831Z,98395.22
2022-12-24T01:52:07.800Z,98399.53
2022-12-24T01:54:42.503Z,98407.69
2022-12-24T01:57:19.396Z,98404.84
2022-12-24T01:59:53.018Z,98412.47
2022-12-24T02:02:22.707Z,98412.09
2022-12-24T02:04:59.128Z,98424.47
2022-12-24T02:07:28.205Z,98430.66
2022-12-24T02:10:01.368Z,98432.31
2022-12-24T02:12:35.277Z,98414.59
2022-12-24T02:15:04.463Z,98406.53
2022-12-24T02:17:40.990Z,98416.75
2022-12-24T02:20:43.085Z,98399.69
2022-12-24T02:23:56.604Z,98403.06
2022-12-24T02:26:49.723Z,98419.13
2022-12-24T02:29:59.496Z,98409.81
2022-12-24T02:32:49.593Z,98392.75
2022-12-24T02:35:22.987Z,98383.66
2022-12-24T02:37:58.309Z,98386.72
2022-12-24T02:40:32.934Z,98387.53
2022-12-24T02:43:09.226Z,98381.22
2022-12-24T02:45:41.941Z,98368.19
2022-12-24T02:48:14.878Z,98391.13
2022-12-24T02:50:57.434Z,98372.94
2022-12-24T02:53:25.938Z,98389.19
2022-12-24T02:56:20.996Z,98400.53
2022-12-24T02:59:10.843Z,98409.63
2022-12-24T03:01:56.250Z,98406.84
2022-12-24T03:04:41.566Z,98411.25
2022-12-24T03:07:21.778Z,98406.56
2022-12-24T03:10:03.572Z,98414.03
2022-12-24T03:12:39.245Z,98422.50
2022-12-24T03:15:11.283Z,98417.78
2022-12-24T03:17:42.991Z,98429.66
2022-12-24T03:20:16.127Z,98430.16
2022-12-24T03:22:44.606Z,98439.78
2022-12-24T03:25:13.049Z,98445.81
2022-12-24T03:27:42.093Z,98445.19
2022-12-24T03:30:15.629Z,98442.94
2022-12-24T03:32:44.039Z,98444.25
2022-12-24T03:35:14.455Z,98451.09
2022-12-24T03:37:42.831Z,98450.47
2022-12-24T03:40:12.413Z,98466.75
2022-12-24T03:42:40.959Z,98473.59
2022-12-24T03:45:10.818Z,98479.13
2022-12-24T03:47:39.251Z,98481.06
2022-12-24T03:50:09.508Z,98479.13
2022-12-24T03:52:39.295Z,98468.06
2022-12-24T03:55:08.718Z,98481.06
2022-12-24T03:57:37.129Z,98479.13
2022-12-24T04:00:07.356Z,98477.97
2022-12-24T04:02:36.461Z,98489.03
2022-12-24T04:05:05.654Z,98488.22
2022-12-24T04:07:34.305Z,98480.75
2022-12-24T04:10:04.204Z,98471.63
2022-12-24T04:12:32.666Z,98480.75
2022-12-24T04:15:01.091Z,98481.25
2022-12-24T04:17:29.528Z,98474.59
2022-12-24T04:19:57.922Z,98485.66
2022-12-24T04:22:26.769Z,98469.91
2022-12-24T04:24:55.174Z,98475.44
2022-12-24T04:27:30.131Z,98492.78
2022-12-24T04:29:59.128Z,98494.78
2022-12-24T04:32:27.686Z,98492.78
2022-12-24T04:34:56.113Z,98510.19
2022-12-24T04:37:24.736Z,98501.63
2022-12-24T04:39:53.083Z,98495.78
2022-12-24T04:42:21.468Z,98479.19
2022-12-24T04:44:51.212Z,98506.00
2022-12-24T04:47:19.581Z,98495.78
2022-12-24T04:49:47.990Z,98496.09
2022-12-24T04:52:16.598Z,98511.03
2022-12-24T04:54:45.009Z,98519.63
2022-12-24T04:57:13.374Z,98521.88
2022-12-24T04:59:41.780Z,98531.28
2022-12-24T05:02:11.735Z,98537.13
2022-12-24T05:04:40.492Z,98539.34
2022-12-24T05:07:08.886Z,98542.13
2022-12-24T05:09:37.349Z,98539.69
2022-12-24T05:12:06.566Z,98542.75
2022-12-24T05:14:34.987Z,98541.44
2022-12-24T05:17:03.446Z,98561.88
2022-12-24T05:19:33.785Z,98568.53
2022-12-24T05:22:19.654Z,98548.38
2022-12-24T05:25:05.505Z,98565.56
2022-12-24T05:27:33.991Z,98562.00
2022-12-24T05:30:02.373Z,98582.13
2022-12-24T05:32:30.776Z,98574.16
2022-12-24T05:35:00.544Z,98586.03
2022-12-24T05:37:28.962Z,98570.28
2022-12-24T05:39:57.328Z,98577.75
2022-12-24T05:42:25.735Z,98570.28
2022-12-24T05:44:54.379Z,98589.09
2022-12-24T05:47:22.760Z,98595.44
2022-12-24T05:49:51.144Z,98585.53
2022-12-24T05:52:21.001Z,98597.38
2022-12-24T05:54:49.506Z,98605.38
2022-12-24T05:57:18.183Z,98599.53
2022-12-24T05:59:46.614Z,98600.34
2022-12-24T06:02:15.127Z,98606.69
2022-12-24T06:04:43.753Z,98619.38
2022-12-24T06:07:12.359Z,98638.41
2022-12-24T06:09:42.291Z,98640.84
2022-12-24T06:12:10.721Z,98639.44
2022-12-24T06:14:39.110Z,98642.72
2022-12-24T06:17:07.494Z,98639.63
2022-12-24T06:19:35.901Z,98639.63
2022-12-24T06:22:04.490Z,98638.78
2022-12-24T06:24:32.880Z,98638.00
2022-12-24T06:27:02.706Z,98642.47
2022-12-24T06:29:31.104Z,98673.19
2022-12-24T06:31:59.515Z,98660.28
2022-12-24T06:34:28.163Z,98657.31
2022-12-24T06:36:56.591Z,98653.84
2022-12-24T06:39:25.807Z,98646.47
2022-12-24T06:41:54.290Z,98654.56
2022-12-24T06:44:24.349Z,98646.34
2022-12-24T06:46:53.022Z,98640.91
2022-12-24T06:49:21.460Z,98646.22
2022-12-24T06:51:49.843Z,98655.13
2022-12-24T06:54:18.371Z,98670.34
2022-12-24T06:56:46.789Z,98673.66
2022-12-24T06:59:15.158Z,98678.66
2022-12-24T07:01:45.095Z,98680.59
2022-12-24T07:04:19.859Z,98678.66
2022-12-24T07:06:48.998Z,98705.16
2022-12-24T07:09:17.395Z,98705.97
2022-12-24T07:11:45.774Z,98702.41
2022-12-24T07:14:14.174Z,98703.19
2022-12-24T07:16:44.051Z,98710.38
2022-12-24T07:19:12.595Z,98717.50
2022-12-24T07:21:41.045Z,98723.03
2022-12-24T07:24:09.582Z,98721.09
2022-12-24T07:26:38.051Z,98732.13
2022-12-24T07:29:06.461Z,98734.91
2022-12-24T07:31:34.759Z,98735.72
2022-12-24T07:34:04.671Z,98752.28
2022-12-24T07:36:33.106Z,98750.63
2022-12-24T07:39:01.509Z,98760.06
2022-12-24T07:41:30.061Z,98760.06
2022-12-24T07:43:58.459Z,98753.19
2022-12-24T07:46:26.911Z,98776.94
2022-12-24T07:48:55.345Z,98784.66
2022-12-24T07:51:25.204Z,98772.00
2022-12-24T07:53:53.595Z,98785.78
2022-12-24T07:56:22.013Z,98789.38
2022-12-24T07:58:52.778Z,98791.00
2022-12-24T08:01:21.289Z,98801.22
2022-12-24T08:03:51.510Z,98816.88
2022-12-24T08:06:20.040Z,98817.47
2022-12-24T08:08:49.865Z,98814.09
2022-12-24T08:11:18.418Z,98822.09
2022-12-24T08:13:46.816Z,98812.66
2022-12-24T08:16:15.286Z,98824.22
2022-12-24T08:18:44.139Z,98835.28
2022-12-24T08:21:12.544Z,98836.09
2022-12-24T08:23:40.983Z,98852.66
2022-12-24T08:26:11.969Z,98857.66
2022-12-24T08:28:41.665Z,98849.69
2022-12-24T08:31:10.428Z,98855.50
2022-12-24T08:33:38.915Z,98858.25
2022-12-24T08:36:08.014Z,98861.84
2022-12-24T08:38:36.509Z,98854.38
2022-12-24T08:41:05.401Z,98867.59
2022-12-24T08:43:35.157Z,98858.69
2022-12-24T08:46:05.929Z,98863.63
2022-12-24T08:48:35.262Z,98880.13
2022-12-24T08:51:09.718Z,98881.16
2022-12-24T08:53:38.800Z,98895.13
2022-12-24T08:56:10.679Z,98898.31
2022-12-24T08:58:40.828Z,98896.53
2022-12-24T09:01:14.528Z,98895.84
2022-12-24T09:03:43.640Z,98897.03
2022-12-24T09:06:13.328Z,98908.50
2022-12-24T09:08:41.906Z,98918.06
2022-12-24T09:11:15.046Z,98915.22
2022-12-24T09:13:45.334Z,98918.72
2022-12-24T09:16:14.438Z,98922.72
2022-12-24T09:18:43.127Z,98924.03
2022-12-24T09:21:15.474Z,98920.84
2022-12-24T09:23:48.027Z,98915.75
2022-12-24T09:26:18.871Z,98921.19
2022-12-24T09:28:49.918Z,98920.47
2022-12-24T09:31:18.964Z,98920.91
2022-12-24T09:33:49.118Z,98913.03
2022-12-24T09:36:17.841Z,98922.84
2022-12-24T09:38:46.883Z,98912.50
2022-12-24T09:41:22.876Z,98913.25
2022-12-24T09:44:01.427Z,98909.03
2022-12-24T09:46:35.493Z,98914.25
2022-12-24T09:49:09.877Z,98915.09
2022-12-24T09:51:43.027Z,98925.84
2022-12-24T09:54:20.773Z,98922.25
2022-12-24T09:56:50.270Z,98943.47
2022-12-24T09:59:24.256Z,98942.66
2022-12-24T10:01:55.786Z,98940.41
2022-12-24T10:04:30.599Z,98964.50
2022-12-24T10:07:07.062Z,98957.31
2022-12-24T10:09:44.323Z,98953.72
2022-12-24T10:12:23.813Z,98955.69
2022-12-24T10:15:09.392Z,98974.75
2022-12-24T10:17:53.228Z,98964.19
2022-12-24T10:20:46.768Z,98953.13
2022-12-24T10:23:25.185Z,98971.66
2022-12-24T10:26:06.425Z,98968.69
2022-12-24T10:28:49.664Z,98978.13
2022-12-24T10:31:24.412Z,98980.28
2022-12-24T10:33:59.555Z,98979.69
2022-12-24T10:36:31.717Z,98978.03
2022-12-24T10:39:00.682Z,98972.00
2022-12-24T10:41:31.049Z,98968.56
2022-12-24T10:44:01.199Z,98979.97
2022-12-24T10:46:37.464Z,98975.66
2022-12-24T10:49:09.276Z,98968.78
2022-12-24T10:51:46.564Z,98971.97
2022-12-24T10:54:24.437Z,98966.19
2022-12-24T10:57:00.959Z,98967.25
2022-12-24T10:59:32.704Z,98969.69
2022-12-24T11:02:03.618Z,98958.75
2022-12-24T11:04:34.011Z,98977.13
2022-12-24T11:07:05.761Z,98959.19
2022-12-24T11:09:36.914Z,98974.91
2022-12-24T11:12:16.760Z,98986.06
2022-12-24T11:14:45.175Z,98966.50
2022-12-24T11:17:23.663Z,98969.28
2022-12-24T11:19:52.560Z,98963.28
2022-12-24T11:22:25.654Z,98969.84
2022-12-24T11:25:04.106Z,98956.22
2022-12-24T11:27:44.498Z,98962.94
2022-12-24T11:30:33.827Z,98960.97
2022-12-24T11:33:22.979Z,98954.13
2022-12-24T11:36:14.414Z,98958.38
2022-12-24T11:38:42.855Z,98968.34
2022-12-24T11:41:13.326Z,98957.38
2022-12-24T11:43:45.575Z,98952.16
2022-12-24T11:46:18.853Z,98954.06
2022-12-24T11:48:50.071Z,98965.97
2022-12-24T11:51:25.697Z,98971.16
2022-12-24T11:54:06.090Z,98977.69
2022-12-24T11:56:42.060Z,98972.72
2022-12-24T11:59:20.476Z,98976.31
2022-12-24T12:01:56.697Z,98978.00
2022-12-24T12:04:31.272Z,98982.38
2022-12-24T12:07:11.130Z,98989.94
2022-12-24T12:09:47.054Z,98980.31
2022-12-24T12:12:20.031Z,98964.56
2022-12-24T12:14:53.381Z,98991.66
2022-12-24T12:17:32.901Z,98984.59
2022-12-24T12:20:12.510Z,98982.13
2022-12-24T12:22:51.630Z,98986.53
2022-12-24T12:25:27.772Z,98996.13
2022-12-24T12:27:59.255Z,98991.91
2022-12-24T12:30:28.810Z,98988.44
2022-12-24T12:33:05.821Z,98993.41
2022-12-24T12:35:39.808Z,99005.00
2022-12-24T12:38:14.282Z,99004.72
2022-12-24T12:41:13.346Z,98995.91
2022-12-24T12:44:29.929Z,99017.72
2022-12-24T12:47:38.670Z,99020.06
2022-12-24T12:50:18.471Z,99030.97
2022-12-24T12:53:05.051Z,99037.72
2022-12-24T12:55:47.935Z,99041.94
2022-12-24T12:58:24.527Z,99046.13
2022-12-24T13:01:00.159Z,99060.56
2022-12-24T13:04:20.996Z,99064.84
2022-12-24T13:08:01.010Z,99066.91
2022-12-24T13:11:03.017Z,99067.50
2022-12-24T13:14:21.067Z,99086.03
2022-12-24T13:17:28.881Z,99091.28
2022-12-24T13:20:18.920Z,99093.66
2022-12-24T13:22:59.486Z,99099.13
2022-12-24T13:25:36.592Z,99100.44
2022-12-24T13:28:34.252Z,99104.66
2022-12-24T13:31:31.796Z,99115.19
2022-12-24T13:34:05.188Z,99116.84
2022-12-24T13:37:07.110Z,99110.88
2022-12-24T13:40:04.188Z,99115.06
2022-12-24T13:43:12.330Z,99113.72
2022-12-24T13:45:51.403Z,99115.13
2022-12-24T13:48:34.385Z,99125.50
2022-12-24T13:51:26.623Z,99117.56
2022-12-24T13:54:00.156Z,99115.16
2022-12-24T13:56:31.706Z,99119.16
2022-12-24T13:59:22.818Z,99131.69
2022-12-24T14:01:53.174Z,99125.13
2022-12-24T14:04:28.110Z,99136.25
2022-12-24T14:07:00.968Z,99148.22
2022-12-24T14:09:32.163Z,99141.34
2022-12-24T14:12:48.461Z,99133.69
2022-12-24T14:16:04.653Z,99152.59
2022-12-24T14:18:40.775Z,99163.13
2022-12-24T14:21:17.796Z,99170.59
2022-12-24T14:23:54.797Z,99170.38
2022-12-24T14:26:26.452Z,99179.78
2022-12-24T14:28:59.011Z,99180.34
2022-12-24T14:31:27.615Z,99182.06
2022-12-24T14:34:13.094Z,99190.41
2022-12-24T14:36:44.016Z,99192.13
2022-12-24T14:39:24.901Z,99191.66
2022-12-24T14:42:09.239Z,99198.91
2022-12-24T14:44:47.451Z,99191.50
2022-12-24T14:47:32.679Z,99195.13
2022-12-24T14:50:43.921Z,99202.13
2022-12-24T14:53:28.729Z,99215.97
2022-12-24T14:55:57.172Z,99213.25
2022-12-24T14:58:31.186Z,99208.91
2022-12-24T15:01:02.507Z,99213.38
2022-12-24T15:03:33.320Z,99218.94
2022-12-24T15:06:07.428Z,99236.38
2022-12-24T15:08:42.311Z,99227.03
2022-12-24T15:11:17.283Z,99234.22
2022-12-24T15:13:49.320Z,99238.69
2022-12-24T15:16:25.697Z,99237.59
2022-12-24T15:18:58.144Z,99232.38
2022-12-24T15:21:33.004Z,99246.75
2022-12-24T15:24:01.971Z,99240.69
2022-12-24T15:26:32.616Z,99242.91
2022-12-24T15:29:03.530Z,99242.38
2022-12-24T15:31:33.057Z,99234.66
2022-12-24T15:34:01.957Z,99237.69
2022-12-24T15:36:34.800Z,99232.78
2022-12-24T15:39:06.991Z,99239.69
2022-12-24T15:42:01.288Z,99236.41
2022-12-24T15:44:34.775Z,99242.47
2022-12-24T15:47:06.700Z,99246.06
2022-12-24T15:49:36.803Z,99251.88
2022-12-24T15:52:10.751Z,99267.88
2022-12-24T15:54:44.280Z,99267.06
2022-12-24T15:57:24.375Z,99258.53
2022-12-24T15:59:55.644Z,99266.81
2022-12-24T16:02:40.241Z,99269.03
2022-12-24T16:05:35.811Z,99272.09
2022-12-24T16:08:23.554Z,99269.84
2022-12-24T16:11:07.427Z,99273.44
2022-12-24T16:13:39.163Z,99286.41
2022-12-24T16:16:11.582Z,99299.06
2022-12-24T16:18:44.117Z,99297.97
2022-12-24T16:21:24.727Z,99297.44
2022-12-24T16:23:57.451Z,99303.50
2022-12-24T16:26:26.124Z,99307.09
2022-12-24T16:28:56.376Z,99309.03
2022-12-24T16:31:33.177Z,99317.59
2022-12-24T16:34:03.063Z,99303.50
2022-12-24T16:36:33.297Z,99305.44
2022-12-24T16:39:20.481Z,99307.34
2022-12-24T16:42:06.052Z,99310.72
2022-12-24T16:44:34.464Z,99314.56
2022-12-24T16:47:03.045Z,99330.03
2022-12-24T16:49:31.628Z,99316.22
2022-12-24T16:52:00.115Z,99320.91
2022-12-24T16:54:30.169Z,99329.75
2022-12-24T16:56:58.640Z,99323.13
2022-12-24T16:59:27.126Z,99331.94
2022-12-24T17:01:55.690Z,99333.03
2022-12-24T17:04:24.247Z,99334.16
2022-12-24T17:06:52.771Z,99337.19
2022-12-24T17:09:21.259Z,99348.53
2022-12-24T17:11:51.107Z,99342.47
2022-12-24T17:14:20.784Z,99348.81
2022-12-24T17:16:49.804Z,99351.03
2022-12-24T17:19:18.581Z,99351.03
2022-12-24T17:21:47.253Z,99362.34
2022-12-24T17:24:15.807Z,99355.97
2022-12-24T17:26:44.520Z,99355.97
2022-12-24T17:29:14.391Z,99355.44
2022-12-24T17:31:43.465Z,99360.69
2022-12-24T17:34:12.112Z,99372.50
2022-12-24T17:36:40.977Z,99371.66
2022-12-24T17:39:09.951Z,99365.84
2022-12-24T17:41:38.412Z,99369.13
2022-12-24T17:44:09.062Z,99371.03
2022-12-24T17:46:39.013Z,99381.78
2022-12-24T17:49:07.718Z,99385.06
2022-12-24T17:51:40.265Z,99382.25
2022-12-24T17:54:13.413Z,99394.13
2022-12-24T17:56:42.045Z,99388.03
2022-12-24T17:59:10.958Z,99392.69
2022-12-24T18:01:40.962Z,99380.25
2022-12-24T18:04:09.657Z,99399.53
2022-12-24T18:06:47.244Z,99393.44
2022-12-24T18:09:17.657Z,99385.97
2022-12-24T18:11:46.145Z,99393.94
2022-12-24T18:14:15.427Z,99395.25
2022-12-24T18:16:46.207Z,99387.44
2022-12-24T18:19:14.762Z,99377.19
2022-12-24T18:21:43.260Z,99387.91
2022-12-24T18:24:13.335Z,99391.47
2022-12-24T18:26:41.921Z,99395.56
2022-12-24T18:29:11.219Z,99384.72
2022-12-24T18:31:40.213Z,99392.97
2022-12-24T18:34:13.900Z,99386.88
2022-12-24T18:36:42.639Z,99399.53
2022-12-24T18:39:11.059Z,99400.91
2022-12-24T18:41:39.498Z,99405.81
2022-12-24T18:44:07.939Z,99405.25
2022-12-24T18:46:36.351Z,99412.44
2022-12-24T18:49:04.855Z,99412.66
2022-12-24T18:51:36.312Z,99420.69
2022-12-24T18:54:05.822Z,99423.16
2022-12-24T18:56:34.689Z,99436.72
2022-12-24T18:59:04.752Z,99435.88
2022-12-24T19:01:35.475Z,99440.31
2022-12-24T19:04:04.578Z,99443.91
2022-12-24T19:06:34.476Z,99443.06
2022-12-24T19:09:03.281Z,99446.69
2022-12-24T19:11:34.216Z,99449.44
2022-12-24T19:14:04.032Z,99450.28
2022-12-24T19:16:36.076Z,99456.06
2022-12-24T19:19:06.090Z,99463.28
2022-12-24T19:21:36.078Z,99453.03
2022-12-24T19:24:05.028Z,99461.34
2022-12-24T19:26:33.747Z,99460.19
2022-12-24T19:29:02.180Z,99465.72
2022-12-24T19:31:32.270Z,99470.44
2022-12-24T19:34:00.868Z,99475.97
2022-12-24T19:36:32.104Z,99473.19
2022-12-24T19:39:01.881Z,99475.16
2022-12-24T19:41:32.585Z,99471.56
2022-12-24T19:44:03.055Z,99487.03
2022-12-24T19:46:36.262Z,99479.88
2022-12-24T19:49:07.610Z,99492.56
2022-12-24T19:51:36.693Z,99488.16
2022-12-24T19:54:13.381Z,99495.63
2022-12-24T19:56:45.337Z,99496.47
2022-12-24T19:59:13.794Z,99495.06
2022-12-24T20:01:42.427Z,99498.66
2022-12-24T20:04:11.454Z,99506.69
2022-12-24T20:06:39.901Z,99506.69
2022-12-24T20:09:10.117Z,99523.28
2022-12-24T20:11:38.732Z,99515.50
2022-12-24T20:14:09.277Z,99520.22
2022-12-24T20:16:37.819Z,99523.81
2022-12-24T20:19:08.220Z,99525.47
2022-12-24T20:21:38.066Z,99523.50
2022-12-24T20:24:07.748Z,99521.56
2022-12-24T20:26:37.935Z,99522.41
2022-12-24T20:29:08.571Z,99530.72
2022-12-24T20:31:38.377Z,99524.88
2022-12-24T20:34:08.566Z,99518.53
2022-12-24T20:36:38.371Z,99527.63
2022-12-24T20:39:07.994Z,99522.09
2022-12-24T20:41:38.200Z,99527.63
2022-12-24T20:44:07.074Z,99527.63
2022-12-24T20:46:35.734Z,99532.06
2022-12-24T20:49:05.332Z,99534.00
2022-12-24T20:51:34.122Z,99528.47
2022-12-24T20:54:03.043Z,99535.13
2022-12-24T20:56:32.240Z,99534.31
2022-12-24T20:59:02.812Z,99526.00
2022-12-24T21:01:31.582Z,99530.72
2022-12-24T21:04:04.826Z,99533.47
2022-12-24T21:06:34.611Z,99528.78
2022-12-24T21:09:08.380Z,99533.47
2022-12-24T21:11:54.305Z,99536.25
2022-12-24T21:14:27.672Z,99529.34
2022-12-24T21:16:56.846Z,99536.25
2022-12-24T21:19:26.735Z,99534.31
2022-12-24T21:21:56.434Z,99538.69
2022-12-24T21:24:25.690Z,99538.69
2022-12-24T21:26:54.095Z,99541.47
2022-12-24T21:29:23.928Z,99542.59
2022-12-24T21:31:52.394Z,99534.00
2022-12-24T21:34:21.074Z,99549.78
2022-12-24T21:36:49.551Z,99541.47
2022-12-24T21:39:18.062Z,99549.78
2022-12-24T21:41:46.525Z,99535.13
2022-12-24T21:44:14.969Z,99539.84
2022-12-24T21:46:44.963Z,99544.53
2022-12-24T21:49:30.794Z,99534.31
2022-12-24T21:52:00.724Z,99538.16
2022-12-24T21:54:30.547Z,99535.41
2022-12-24T21:57:19.764Z,99523.50
2022-12-24T21:59:50.552Z,99525.19
2022-12-24T22:02:26.661Z,99529.59
2022-12-24T22:04:55.743Z,99521.31
2022-12-24T22:07:44.829Z,99532.63
2022-12-24T22:10:32.844Z,99538.22
2022-12-24T22:13:06.270Z,99546.53
2022-12-24T22:15:35.576Z,99533.56
2022-12-24T22:18:07.995Z,99524.47
2022-12-24T22:20:36.604Z,99525.63
2022-12-24T22:23:05.432Z,99535.91
2022-12-24T22:25:34.334Z,99541.44
2022-12-24T22:28:03.309Z,99535.94
2022-12-24T22:30:32.280Z,99544.28
2022-12-24T22:33:00.822Z,99535.44
2022-12-24T22:35:30.826Z,99537.97
2022-12-24T22:38:00.303Z,99537.13
2022-12-24T22:40:29.311Z,99542.13
2022-12-24T22:42:57.941Z,99542.13
2022-12-24T22:45:26.415Z,99542.13
2022-12-24T22:47:54.897Z,99544.59
2022-12-24T22:50:23.620Z,99550.69
2022-12-24T22:52:53.989Z,99551.47
2022-12-24T22:55:22.524Z,99550.38
2022-12-24T22:57:51.142Z,99551.22
2022-12-24T23:00:40.928Z,99560.91
2022-12-24T23:03:11.053Z,99560.31
2022-12-24T23:05:40.313Z,99550.94
2022-12-24T23:08:11.363Z,99562.81
2022-12-24T23:10:41.294Z,99567.22
2022-12-24T23:13:27.053Z,99574.09
2022-12-24T23:15:55.552Z,99579.63
2022-12-24T23:18:24.105Z,99568.31
2022-12-24T23:20:52.569Z,99575.47
2022-12-24T23:23:22.504Z,99577.41
2022-12-24T23:25:50.992Z,99581.84
2022-12-24T23:28:19.420Z,99575.22
2022-12-24T23:30:58.385Z,99576.31
2022-12-24T23:33:26.989Z,99593.13
2022-12-24T23:35:55.640Z,99585.69
2022-12-24T23:38:25.491Z,99597.28
2022-12-24T23:40:57.034Z,99594.25
2022-12-24T23:43:25.737Z,99597.53
2022-12-24T23:45:55.370Z,99603.91
2022-12-24T23:48:25.316Z,99593.66
2022-12-24T23:51:03.482Z,99598.91
2022-12-24T23:53:33.445Z,99602.50
2022-12-24T23:56:02.835Z,99593.91
2022-12-24T23:58:31.505Z,99596.38
